sensor_id;sensor_type;location;lat;lon;timestamp;temperature;humidity
11454;DHT22;5783;55.174;61.310;2023-09-19T00:01:10;23.00;54.30
11454;DHT22;5783;55.174;61.310;2023-09-19T00:03:40;23.00;54.20
11454;DHT22;5783;55.174;61.310;2023-09-19T00:06:09;23.00;54.10
11454;DHT22;5783;55.174;61.310;2023-09-19T00:08:40;23.00;54.10
11454;DHT22;5783;55.174;61.310;2023-09-19T00:11:29;23.00;54.10
11454;DHT22;5783;55.174;61.310;2023-09-19T00:13:58;23.00;54.30
11454;DHT22;5783;55.174;61.310;2023-09-19T00:16:27;22.90;54.10
11454;DHT22;5783;55.174;61.310;2023-09-19T00:18:56;22.90;54.20
11454;DHT22;5783;55.174;61.310;2023-09-19T00:21:27;22.90;54.20
11454;DHT22;5783;55.174;61.310;2023-09-19T00:23:57;22.90;54.20
11454;DHT22;5783;55.174;61.310;2023-09-19T00:26:26;22.90;54.20
11454;DHT22;5783;55.174;61.310;2023-09-19T00:28:57;22.90;54.40
11454;DHT22;5783;55.174;61.310;2023-09-19T00:31:28;22.90;54.40
11454;DHT22;5783;55.174;61.310;2023-09-19T00:33:57;22.90;54.50
11454;DHT22;5783;55.174;61.310;2023-09-19T00:36:28;22.90;54.60
11454;DHT22;5783;55.174;61.310;2023-09-19T00:38:57;22.90;54.70
11454;DHT22;5783;55.174;61.310;2023-09-19T00:41:26;22.90;54.60
11454;DHT22;5783;55.174;61.310;2023-09-19T00:43:57;22.90;54.60
11454;DHT22;5783;55.174;61.310;2023-09-19T00:46:27;22.90;54.80
11454;DHT22;5783;55.174;61.310;2023-09-19T00:48:56;22.90;54.80
11454;DHT22;5783;55.174;61.310;2023-09-19T00:51:27;22.90;54.90
11454;DHT22;5783;55.174;61.310;2023-09-19T00:53:56;22.90;54.80
11454;DHT22;5783;55.174;61.310;2023-09-19T00:56:26;22.90;54.70
11454;DHT22;5783;55.174;61.310;2023-09-19T00:58:55;22.90;54.80
11454;DHT22;5783;55.174;61.310;2023-09-19T01:01:24;22.90;54.80
11454;DHT22;5783;55.174;61.310;2023-09-19T01:03:54;22.90;54.90
11454;DHT22;5783;55.174;61.310;2023-09-19T01:06:24;23.00;55.00
11454;DHT22;5783;55.174;61.310;2023-09-19T01:08:53;22.90;55.00
11454;DHT22;5783;55.174;61.310;2023-09-19T01:32:30;22.80;54.80
11454;DHT22;5783;55.174;61.310;2023-09-19T01:34:59;22.80;54.70
11454;DHT22;5783;55.174;61.310;2023-09-19T01:37:30;22.80;54.70
11454;DHT22;5783;55.174;61.310;2023-09-19T01:40:34;22.80;54.60
11454;DHT22;5783;55.174;61.310;2023-09-19T01:54:52;22.70;54.80
11454;DHT22;5783;55.174;61.310;2023-09-19T02:00:33;22.70;54.80
11454;DHT22;5783;55.174;61.310;2023-09-19T02:03:04;22.70;54.70
11454;DHT22;5783;55.174;61.310;2023-09-19T02:05:33;22.70;54.80
11454;DHT22;5783;55.174;61.310;2023-09-19T02:08:03;22.70;54.80
11454;DHT22;5783;55.174;61.310;2023-09-19T02:10:32;22.70;54.70
11454;DHT22;5783;55.174;61.310;2023-09-19T02:13:02;22.80;54.70
11454;DHT22;5783;55.174;61.310;2023-09-19T02:15:32;22.70;54.70
11454;DHT22;5783;55.174;61.310;2023-09-19T02:18:02;22.70;54.50
11454;DHT22;5783;55.174;61.310;2023-09-19T02:20:33;22.70;54.60
11454;DHT22;5783;55.174;61.310;2023-09-19T02:23:04;22.70;54.60
11454;DHT22;5783;55.174;61.310;2023-09-19T02:25:34;22.70;54.60
11454;DHT22;5783;55.174;61.310;2023-09-19T02:28:05;22.80;54.70
11454;DHT22;5783;55.174;61.310;2023-09-19T02:30:35;22.80;54.60
11454;DHT22;5783;55.174;61.310;2023-09-19T02:33:05;22.70;54.60
11454;DHT22;5783;55.174;61.310;2023-09-19T02:35:35;22.70;54.70
11454;DHT22;5783;55.174;61.310;2023-09-19T02:38:04;22.70;54.70
11454;DHT22;5783;55.174;61.310;2023-09-19T02:40:53;22.80;54.60
11454;DHT22;5783;55.174;61.310;2023-09-19T02:43:23;22.80;54.70
11454;DHT22;5783;55.174;61.310;2023-09-19T02:45:53;22.70;54.40
11454;DHT22;5783;55.174;61.310;2023-09-19T02:48:23;22.70;54.60
11454;DHT22;5783;55.174;61.310;2023-09-19T02:50:53;22.70;54.60
11454;DHT22;5783;55.174;61.310;2023-09-19T02:53:22;22.70;54.60
11454;DHT22;5783;55.174;61.310;2023-09-19T02:55:51;22.70;54.60
11454;DHT22;5783;55.174;61.310;2023-09-19T02:58:22;22.70;54.70
11454;DHT22;5783;55.174;61.310;2023-09-19T03:00:54;22.80;54.70
11454;DHT22;5783;55.174;61.310;2023-09-19T03:03:24;22.70;54.70
11454;DHT22;5783;55.174;61.310;2023-09-19T03:05:54;22.70;54.70
11454;DHT22;5783;55.174;61.310;2023-09-19T03:08:24;22.70;54.60
11454;DHT22;5783;55.174;61.310;2023-09-19T03:10:54;22.70;54.60
11454;DHT22;5783;55.174;61.310;2023-09-19T03:13:23;22.80;54.60
11454;DHT22;5783;55.174;61.310;2023-09-19T03:15:54;22.80;54.70
11454;DHT22;5783;55.174;61.310;2023-09-19T03:18:25;22.80;54.70
11454;DHT22;5783;55.174;61.310;2023-09-19T03:20:55;22.80;54.60
11454;DHT22;5783;55.174;61.310;2023-09-19T03:23:27;22.80;54.50
11454;DHT22;5783;55.174;61.310;2023-09-19T03:25:57;22.80;54.60
11454;DHT22;5783;55.174;61.310;2023-09-19T03:28:26;22.80;54.60
11454;DHT22;5783;55.174;61.310;2023-09-19T03:31:15;22.80;54.60
11454;DHT22;5783;55.174;61.310;2023-09-19T03:33:44;22.80;54.60
11454;DHT22;5783;55.174;61.310;2023-09-19T03:36:13;22.70;54.50
11454;DHT22;5783;55.174;61.310;2023-09-19T03:38:43;22.70;54.50
11454;DHT22;5783;55.174;61.310;2023-09-19T03:41:12;22.70;54.40
11454;DHT22;5783;55.174;61.310;2023-09-19T03:43:42;22.70;54.50
11454;DHT22;5783;55.174;61.310;2023-09-19T03:46:12;22.70;54.40
11454;DHT22;5783;55.174;61.310;2023-09-19T03:48:41;22.70;54.40
11454;DHT22;5783;55.174;61.310;2023-09-19T03:51:10;22.70;54.40
11454;DHT22;5783;55.174;61.310;2023-09-19T03:53:40;22.70;54.20
11454;DHT22;5783;55.174;61.310;2023-09-19T03:56:09;22.70;54.20
11454;DHT22;5783;55.174;61.310;2023-09-19T03:58:38;22.70;54.20
11454;DHT22;5783;55.174;61.310;2023-09-19T04:01:07;22.70;54.30
11454;DHT22;5783;55.174;61.310;2023-09-19T04:03:36;22.70;54.30
11454;DHT22;5783;55.174;61.310;2023-09-19T04:06:25;22.70;54.40
11454;DHT22;5783;55.174;61.310;2023-09-19T04:08:54;22.70;54.40
11454;DHT22;5783;55.174;61.310;2023-09-19T04:11:24;22.70;54.50
11454;DHT22;5783;55.174;61.310;2023-09-19T04:13:53;22.70;54.60
11454;DHT22;5783;55.174;61.310;2023-09-19T04:16:22;22.70;54.60
11454;DHT22;5783;55.174;61.310;2023-09-19T04:18:51;22.70;54.60
11454;DHT22;5783;55.174;61.310;2023-09-19T04:21:20;22.70;54.60
11454;DHT22;5783;55.174;61.310;2023-09-19T04:23:50;22.70;54.60
11454;DHT22;5783;55.174;61.310;2023-09-19T04:26:19;22.80;54.70
11454;DHT22;5783;55.174;61.310;2023-09-19T04:28:48;22.70;54.80
11454;DHT22;5783;55.174;61.310;2023-09-19T04:31:18;22.80;54.80
11454;DHT22;5783;55.174;61.310;2023-09-19T04:33:48;22.80;54.80
11454;DHT22;5783;55.174;61.310;2023-09-19T04:36:18;22.80;54.80
11454;DHT22;5783;55.174;61.310;2023-09-19T04:38:48;22.80;54.80
11454;DHT22;5783;55.174;61.310;2023-09-19T04:41:18;22.80;54.80
11454;DHT22;5783;55.174;61.310;2023-09-19T04:43:49;22.80;54.80
11454;DHT22;5783;55.174;61.310;2023-09-19T04:46:18;22.80;54.40
11454;DHT22;5783;55.174;61.310;2023-09-19T04:48:47;22.70;54.20
11454;DHT22;5783;55.174;61.310;2023-09-19T04:51:16;22.70;54.30
11454;DHT22;5783;55.174;61.310;2023-09-19T04:53:47;22.60;55.10
11454;DHT22;5783;55.174;61.310;2023-09-19T04:56:16;22.60;54.60
11454;DHT22;5783;55.174;61.310;2023-09-19T04:58:46;22.60;54.50
11454;DHT22;5783;55.174;61.310;2023-09-19T05:01:15;22.60;54.70
11454;DHT22;5783;55.174;61.310;2023-09-19T05:03:44;22.60;54.70
11454;DHT22;5783;55.174;61.310;2023-09-19T05:06:15;22.60;54.90
11454;DHT22;5783;55.174;61.310;2023-09-19T05:08:44;22.60;55.20
11454;DHT22;5783;55.174;61.310;2023-09-19T05:11:15;22.70;54.00
11454;DHT22;5783;55.174;61.310;2023-09-19T05:13:45;22.70;53.80
11454;DHT22;5783;55.174;61.310;2023-09-19T05:16:14;22.80;53.20
11454;DHT22;5783;55.174;61.310;2023-09-19T05:18:43;22.80;52.70
11454;DHT22;5783;55.174;61.310;2023-09-19T05:21:12;22.80;52.50
11454;DHT22;5783;55.174;61.310;2023-09-19T05:23:41;22.80;52.60
11454;DHT22;5783;55.174;61.310;2023-09-19T05:26:11;22.90;52.50
11454;DHT22;5783;55.174;61.310;2023-09-19T05:28:42;22.90;52.30
11454;DHT22;5783;55.174;61.310;2023-09-19T05:31:11;22.90;52.10
11454;DHT22;5783;55.174;61.310;2023-09-19T05:33:42;22.90;52.10
11454;DHT22;5783;55.174;61.310;2023-09-19T05:36:11;22.90;52.10
11454;DHT22;5783;55.174;61.310;2023-09-19T05:38:42;22.90;52.20
11454;DHT22;5783;55.174;61.310;2023-09-19T05:41:11;22.90;52.10
11454;DHT22;5783;55.174;61.310;2023-09-19T05:43:40;23.00;52.30
11454;DHT22;5783;55.174;61.310;2023-09-19T05:57:33;22.80;52.30
11454;DHT22;5783;55.174;61.310;2023-09-19T06:00:02;22.80;52.50
11454;DHT22;5783;55.174;61.310;2023-09-19T06:02:35;22.80;52.40
11454;DHT22;5783;55.174;61.310;2023-09-19T06:05:05;22.70;52.40
11454;DHT22;5783;55.174;61.310;2023-09-19T06:07:54;22.70;52.50
11454;DHT22;5783;55.174;61.310;2023-09-19T06:10:25;22.70;52.50
11454;DHT22;5783;55.174;61.310;2023-09-19T06:12:55;22.80;52.70
11454;DHT22;5783;55.174;61.310;2023-09-19T06:15:25;22.80;52.80
11454;DHT22;5783;55.174;61.310;2023-09-19T06:17:55;22.80;52.80
11454;DHT22;5783;55.174;61.310;2023-09-19T06:20:26;22.80;52.90
11454;DHT22;5783;55.174;61.310;2023-09-19T06:22:56;22.80;53.30
11454;DHT22;5783;55.174;61.310;2023-09-19T06:25:26;22.80;53.30
11454;DHT22;5783;55.174;61.310;2023-09-19T06:27:55;22.90;53.20
11454;DHT22;5783;55.174;61.310;2023-09-19T06:30:24;22.90;53.10
11454;DHT22;5783;55.174;61.310;2023-09-19T06:33:15;22.90;53.10
11454;DHT22;5783;55.174;61.310;2023-09-19T06:35:46;22.90;53.10
11454;DHT22;5783;55.174;61.310;2023-09-19T06:38:15;22.90;52.80
11454;DHT22;5783;55.174;61.310;2023-09-19T06:40:45;22.90;52.70
11454;DHT22;5783;55.174;61.310;2023-09-19T06:43:15;22.90;52.50
11454;DHT22;5783;55.174;61.310;2023-09-19T06:45:45;23.00;52.60
11454;DHT22;5783;55.174;61.310;2023-09-19T06:48:14;23.00;52.60
11454;DHT22;5783;55.174;61.310;2023-09-19T06:50:44;23.00;52.70
11454;DHT22;5783;55.174;61.310;2023-09-19T06:53:15;23.00;52.50
11454;DHT22;5783;55.174;61.310;2023-09-19T06:55:45;23.00;53.10
11454;DHT22;5783;55.174;61.310;2023-09-19T06:58:14;23.10;53.20
11454;DHT22;5783;55.174;61.310;2023-09-19T07:00:43;23.10;52.50
11454;DHT22;5783;55.174;61.310;2023-09-19T07:03:14;23.10;52.30
11454;DHT22;5783;55.174;61.310;2023-09-19T07:05:45;23.00;51.90
11454;DHT22;5783;55.174;61.310;2023-09-19T07:08:16;23.00;52.20
11454;DHT22;5783;55.174;61.310;2023-09-19T07:10:46;23.00;51.80
11454;DHT22;5783;55.174;61.310;2023-09-19T07:13:16;23.00;51.70
11454;DHT22;5783;55.174;61.310;2023-09-19T07:15:45;23.00;51.70
11454;DHT22;5783;55.174;61.310;2023-09-19T07:18:17;23.00;52.20
11454;DHT22;5783;55.174;61.310;2023-09-19T07:20:46;22.90;52.00
11454;DHT22;5783;55.174;61.310;2023-09-19T07:23:17;22.90;52.00
11454;DHT22;5783;55.174;61.310;2023-09-19T07:25:47;22.90;51.00
11454;DHT22;5783;55.174;61.310;2023-09-19T07:28:17;22.90;51.30
11454;DHT22;5783;55.174;61.310;2023-09-19T07:30:46;22.90;51.70
11454;DHT22;5783;55.174;61.310;2023-09-19T07:33:15;22.90;51.30
11454;DHT22;5783;55.174;61.310;2023-09-19T07:36:04;22.90;51.30
11454;DHT22;5783;55.174;61.310;2023-09-19T07:38:33;22.90;51.10
11454;DHT22;5783;55.174;61.310;2023-09-19T07:41:03;22.90;50.50
11454;DHT22;5783;55.174;61.310;2023-09-19T07:43:32;22.90;50.50
11454;DHT22;5783;55.174;61.310;2023-09-19T07:46:21;22.90;51.10
11454;DHT22;5783;55.174;61.310;2023-09-19T07:48:51;22.90;50.60
11454;DHT22;5783;55.174;61.310;2023-09-19T07:51:20;22.90;50.60
11454;DHT22;5783;55.174;61.310;2023-09-19T07:53:49;22.90;50.30
11454;DHT22;5783;55.174;61.310;2023-09-19T07:56:19;22.90;50.30
11454;DHT22;5783;55.174;61.310;2023-09-19T07:58:49;22.90;50.20
11454;DHT22;5783;55.174;61.310;2023-09-19T08:01:18;22.90;50.20
11454;DHT22;5783;55.174;61.310;2023-09-19T08:03:49;22.90;50.20
11454;DHT22;5783;55.174;61.310;2023-09-19T08:06:18;22.90;50.10
11454;DHT22;5783;55.174;61.310;2023-09-19T08:08:50;22.90;50.20
11454;DHT22;5783;55.174;61.310;2023-09-19T08:11:19;22.90;50.30
11454;DHT22;5783;55.174;61.310;2023-09-19T08:13:50;22.90;50.50
11454;DHT22;5783;55.174;61.310;2023-09-19T08:16:19;22.90;50.40
11454;DHT22;5783;55.174;61.310;2023-09-19T08:18:49;22.90;50.50
11454;DHT22;5783;55.174;61.310;2023-09-19T08:21:20;22.90;50.60
11454;DHT22;5783;55.174;61.310;2023-09-19T08:23:50;22.90;50.90
11454;DHT22;5783;55.174;61.310;2023-09-19T08:26:20;22.80;51.00
11454;DHT22;5783;55.174;61.310;2023-09-19T08:28:50;22.80;51.20
11454;DHT22;5783;55.174;61.310;2023-09-19T08:31:20;22.80;51.30
11454;DHT22;5783;55.174;61.310;2023-09-19T08:33:51;22.80;51.30
11454;DHT22;5783;55.174;61.310;2023-09-19T08:36:24;22.80;51.50
11454;DHT22;5783;55.174;61.310;2023-09-19T08:38:53;22.80;51.70
11454;DHT22;5783;55.174;61.310;2023-09-19T08:41:22;22.80;51.80
11454;DHT22;5783;55.174;61.310;2023-09-19T08:43:52;22.80;52.10
11454;DHT22;5783;55.174;61.310;2023-09-19T08:46:23;22.80;52.10
11454;DHT22;5783;55.174;61.310;2023-09-19T08:49:18;22.80;52.20
11454;DHT22;5783;55.174;61.310;2023-09-19T08:51:45;22.80;52.50
11454;DHT22;5783;55.174;61.310;2023-09-19T08:57:08;22.70;52.70
11454;DHT22;5783;55.174;61.310;2023-09-19T08:59:38;22.70;52.70
11454;DHT22;5783;55.174;61.310;2023-09-19T09:02:27;22.70;52.80
11454;DHT22;5783;55.174;61.310;2023-09-19T09:04:59;22.80;52.80
11454;DHT22;5783;55.174;61.310;2023-09-19T09:07:28;22.70;52.80
11454;DHT22;5783;55.174;61.310;2023-09-19T09:10:00;22.70;52.60
11454;DHT22;5783;55.174;61.310;2023-09-19T09:12:30;22.80;52.60
11454;DHT22;5783;55.174;61.310;2023-09-19T09:15:00;22.80;52.60
11454;DHT22;5783;55.174;61.310;2023-09-19T09:17:31;22.80;52.60
11454;DHT22;5783;55.174;61.310;2023-09-19T09:20:01;22.80;52.80
11454;DHT22;5783;55.174;61.310;2023-09-19T09:22:34;22.80;52.80
11454;DHT22;5783;55.174;61.310;2023-09-19T09:25:05;22.80;53.00
11454;DHT22;5783;55.174;61.310;2023-09-19T09:27:35;22.80;53.10
11454;DHT22;5783;55.174;61.310;2023-09-19T09:30:05;22.80;52.90
11454;DHT22;5783;55.174;61.310;2023-09-19T09:32:35;22.90;53.00
11454;DHT22;5783;55.174;61.310;2023-09-19T09:35:07;22.80;52.80
11454;DHT22;5783;55.174;61.310;2023-09-19T09:37:37;22.80;52.50
11454;DHT22;5783;55.174;61.310;2023-09-19T09:40:07;22.80;52.20
11454;DHT22;5783;55.174;61.310;2023-09-19T09:42:55;22.80;52.20
11454;DHT22;5783;55.174;61.310;2023-09-19T09:45:26;22.80;52.10
11454;DHT22;5783;55.174;61.310;2023-09-19T09:47:57;22.70;52.00
11454;DHT22;5783;55.174;61.310;2023-09-19T09:50:48;22.70;51.90
11454;DHT22;5783;55.174;61.310;2023-09-19T09:53:38;22.70;51.80
11454;DHT22;5783;55.174;61.310;2023-09-19T09:56:09;22.70;52.00
11454;DHT22;5783;55.174;61.310;2023-09-19T09:58:59;22.70;51.80
11454;DHT22;5783;55.174;61.310;2023-09-19T10:01:45;22.70;51.80
11454;DHT22;5783;55.174;61.310;2023-09-19T10:04:01;22.70;51.70
11454;DHT22;5783;55.174;61.310;2023-09-19T10:06:40;22.70;51.40
11454;DHT22;5783;55.174;61.310;2023-09-19T10:09:24;22.70;51.40
11454;DHT22;5783;55.174;61.310;2023-09-19T10:12:14;22.70;51.20
11454;DHT22;5783;55.174;61.310;2023-09-19T10:14:45;22.70;51.20
11454;DHT22;5783;55.174;61.310;2023-09-19T10:17:18;22.80;51.40
11454;DHT22;5783;55.174;61.310;2023-09-19T10:20:10;22.70;51.30
11454;DHT22;5783;55.174;61.310;2023-09-19T10:22:42;22.80;51.50
11454;DHT22;5783;55.174;61.310;2023-09-19T10:25:14;22.80;53.10
11454;DHT22;5783;55.174;61.310;2023-09-19T10:27:45;22.80;54.40
11454;DHT22;5783;55.174;61.310;2023-09-19T10:30:14;22.80;54.80
11454;DHT22;5783;55.174;61.310;2023-09-19T10:32:44;22.80;54.50
11454;DHT22;5783;55.174;61.310;2023-09-19T10:35:15;22.80;55.40
11454;DHT22;5783;55.174;61.310;2023-09-19T10:37:46;22.80;56.00
11454;DHT22;5783;55.174;61.310;2023-09-19T10:40:18;22.70;55.90
11454;DHT22;5783;55.174;61.310;2023-09-19T10:42:55;22.70;56.50
11454;DHT22;5783;55.174;61.310;2023-09-19T10:45:28;22.80;57.80
11454;DHT22;5783;55.174;61.310;2023-09-19T10:48:04;22.80;59.10
11454;DHT22;5783;55.174;61.310;2023-09-19T10:56:53;22.70;59.40
11454;DHT22;5783;55.174;61.310;2023-09-19T10:59:24;22.70;59.50
11454;DHT22;5783;55.174;61.310;2023-09-19T11:01:56;22.70;60.10
11454;DHT22;5783;55.174;61.310;2023-09-19T11:04:47;22.70;60.50
11454;DHT22;5783;55.174;61.310;2023-09-19T11:07:16;22.70;60.10
11454;DHT22;5783;55.174;61.310;2023-09-19T11:10:05;22.70;60.10
11454;DHT22;5783;55.174;61.310;2023-09-19T11:15:10;22.70;60.40
11454;DHT22;5783;55.174;61.310;2023-09-19T11:17:42;22.70;60.80
11454;DHT22;5783;55.174;61.310;2023-09-19T11:20:32;22.70;61.30
11454;DHT22;5783;55.174;61.310;2023-09-19T11:23:23;22.70;61.30
11454;DHT22;5783;55.174;61.310;2023-09-19T11:25:53;22.70;61.30
11454;DHT22;5783;55.174;61.310;2023-09-19T11:34:42;22.70;61.60
11454;DHT22;5783;55.174;61.310;2023-09-19T11:42:57;22.70;61.00
11454;DHT22;5783;55.174;61.310;2023-09-19T11:48:37;22.70;61.10
11454;DHT22;5783;55.174;61.310;2023-09-19T11:51:27;22.70;61.50
11454;DHT22;5783;55.174;61.310;2023-09-19T11:54:16;22.70;61.30
11454;DHT22;5783;55.174;61.310;2023-09-19T11:56:48;22.70;61.50
11454;DHT22;5783;55.174;61.310;2023-09-19T11:59:21;22.70;62.30
11454;DHT22;5783;55.174;61.310;2023-09-19T12:01:52;22.70;62.20
11454;DHT22;5783;55.174;61.310;2023-09-19T12:04:42;22.60;61.80
11454;DHT22;5783;55.174;61.310;2023-09-19T12:07:34;22.60;61.60
11454;DHT22;5783;55.174;61.310;2023-09-19T12:10:05;22.60;61.40
11454;DHT22;5783;55.174;61.310;2023-09-19T12:12:36;22.60;61.30
11454;DHT22;5783;55.174;61.310;2023-09-19T12:15:05;22.70;60.80
11454;DHT22;5783;55.174;61.310;2023-09-19T12:17:56;22.60;60.50
11454;DHT22;5783;55.174;61.310;2023-09-19T12:20:41;22.60;60.40
11454;DHT22;5783;55.174;61.310;2023-09-19T12:22:57;22.60;60.50
11454;DHT22;5783;55.174;61.310;2023-09-19T12:25:26;22.60;60.70
11454;DHT22;5783;55.174;61.310;2023-09-19T12:27:56;22.60;60.20
11454;DHT22;5783;55.174;61.310;2023-09-19T12:30:28;22.60;60.20
11454;DHT22;5783;55.174;61.310;2023-09-19T12:32:59;22.70;60.50
11454;DHT22;5783;55.174;61.310;2023-09-19T12:35:31;22.70;60.10
11454;DHT22;5783;55.174;61.310;2023-09-19T12:38:41;22.70;59.50
11454;DHT22;5783;55.174;61.310;2023-09-19T12:41:11;22.70;59.40
11454;DHT22;5783;55.174;61.310;2023-09-19T12:43:40;22.70;59.60
11454;DHT22;5783;55.174;61.310;2023-09-19T12:46:12;22.70;59.90
11454;DHT22;5783;55.174;61.310;2023-09-19T12:48:42;22.70;59.40
11454;DHT22;5783;55.174;61.310;2023-09-19T12:51:13;22.70;59.70
11454;DHT22;5783;55.174;61.310;2023-09-19T12:54:04;22.70;59.50
11454;DHT22;5783;55.174;61.310;2023-09-19T12:59:29;22.70;58.80
11454;DHT22;5783;55.174;61.310;2023-09-19T13:02:18;22.70;58.80
11454;DHT22;5783;55.174;61.310;2023-09-19T13:05:09;22.70;59.00
11454;DHT22;5783;55.174;61.310;2023-09-19T13:07:59;22.70;59.30
11454;DHT22;5783;55.174;61.310;2023-09-19T13:10:29;22.70;59.30
11454;DHT22;5783;55.174;61.310;2023-09-19T13:13:21;22.60;59.10
11454;DHT22;5783;55.174;61.310;2023-09-19T13:15:51;22.60;59.10
11454;DHT22;5783;55.174;61.310;2023-09-19T13:18:11;22.60;59.00
11454;DHT22;5783;55.174;61.310;2023-09-19T13:20:40;22.60;59.10
11454;DHT22;5783;55.174;61.310;2023-09-19T13:23:25;22.60;59.10
11454;DHT22;5783;55.174;61.310;2023-09-19T13:25:44;22.60;59.10
11454;DHT22;5783;55.174;61.310;2023-09-19T13:28:14;22.60;59.20
11454;DHT22;5783;55.174;61.310;2023-09-19T13:30:43;22.60;59.30
11454;DHT22;5783;55.174;61.310;2023-09-19T13:33:14;22.60;59.50
11454;DHT22;5783;55.174;61.310;2023-09-19T13:35:45;22.60;59.60
11454;DHT22;5783;55.174;61.310;2023-09-19T13:38:15;22.60;59.70
11454;DHT22;5783;55.174;61.310;2023-09-19T13:40:45;22.60;59.80
11454;DHT22;5783;55.174;61.310;2023-09-19T13:43:14;22.60;59.90
11454;DHT22;5783;55.174;61.310;2023-09-19T13:45:44;22.60;60.00
11454;DHT22;5783;55.174;61.310;2023-09-19T13:48:13;22.60;60.00
11454;DHT22;5783;55.174;61.310;2023-09-19T13:50:42;22.60;60.10
11454;DHT22;5783;55.174;61.310;2023-09-19T13:53:11;22.60;60.20
11454;DHT22;5783;55.174;61.310;2023-09-19T13:55:41;22.60;60.20
11454;DHT22;5783;55.174;61.310;2023-09-19T13:58:10;22.60;60.30
11454;DHT22;5783;55.174;61.310;2023-09-19T14:00:39;22.60;60.50
11454;DHT22;5783;55.174;61.310;2023-09-19T14:03:09;22.50;60.40
11454;DHT22;5783;55.174;61.310;2023-09-19T14:05:38;22.50;60.30
11454;DHT22;5783;55.174;61.310;2023-09-19T14:08:09;22.60;60.40
11454;DHT22;5783;55.174;61.310;2023-09-19T14:10:39;22.50;60.10
11454;DHT22;5783;55.174;61.310;2023-09-19T14:13:08;22.50;60.00
11454;DHT22;5783;55.174;61.310;2023-09-19T14:15:39;22.50;59.40
11454;DHT22;5783;55.174;61.310;2023-09-19T14:18:09;22.60;58.50
11454;DHT22;5783;55.174;61.310;2023-09-19T14:20:39;22.50;58.00
11454;DHT22;5783;55.174;61.310;2023-09-19T14:23:27;22.50;57.70
11454;DHT22;5783;55.174;61.310;2023-09-19T14:25:57;22.40;57.50
11454;DHT22;5783;55.174;61.310;2023-09-19T14:28:27;22.30;57.20
11454;DHT22;5783;55.174;61.310;2023-09-19T14:30:57;22.30;57.30
11454;DHT22;5783;55.174;61.310;2023-09-19T14:33:26;22.20;57.70
11454;DHT22;5783;55.174;61.310;2023-09-19T14:35:55;22.30;58.00
11454;DHT22;5783;55.174;61.310;2023-09-19T14:38:24;22.20;57.90
11454;DHT22;5783;55.174;61.310;2023-09-19T14:43:44;22.20;57.90
11454;DHT22;5783;55.174;61.310;2023-09-19T14:46:13;22.20;56.50
11454;DHT22;5783;55.174;61.310;2023-09-19T14:48:42;22.20;55.70
11454;DHT22;5783;55.174;61.310;2023-09-19T14:51:14;22.20;55.20
11454;DHT22;5783;55.174;61.310;2023-09-19T14:53:45;22.20;54.20
11454;DHT22;5783;55.174;61.310;2023-09-19T14:56:15;22.20;53.60
11454;DHT22;5783;55.174;61.310;2023-09-19T14:58:46;22.20;53.60
11454;DHT22;5783;55.174;61.310;2023-09-19T15:01:16;22.30;53.50
11454;DHT22;5783;55.174;61.310;2023-09-19T15:03:45;22.30;54.70
11454;DHT22;5783;55.174;61.310;2023-09-19T15:06:16;22.40;55.70
11454;DHT22;5783;55.174;61.310;2023-09-19T15:08:47;22.50;56.00
11454;DHT22;5783;55.174;61.310;2023-09-19T15:11:18;22.50;55.80
11454;DHT22;5783;55.174;61.310;2023-09-19T15:13:50;22.60;55.80
11454;DHT22;5783;55.174;61.310;2023-09-19T15:16:19;22.60;55.90
11454;DHT22;5783;55.174;61.310;2023-09-19T15:18:48;22.70;55.50
11454;DHT22;5783;55.174;61.310;2023-09-19T15:21:18;22.70;55.70
11454;DHT22;5783;55.174;61.310;2023-09-19T15:23:48;22.70;55.70
11454;DHT22;5783;55.174;61.310;2023-09-19T15:26:17;22.70;55.70
11454;DHT22;5783;55.174;61.310;2023-09-19T15:28:48;22.80;55.70
11454;DHT22;5783;55.174;61.310;2023-09-19T15:31:17;22.80;55.70
11454;DHT22;5783;55.174;61.310;2023-09-19T15:33:46;22.80;55.60
11454;DHT22;5783;55.174;61.310;2023-09-19T15:36:16;22.80;55.50
11454;DHT22;5783;55.174;61.310;2023-09-19T15:39:05;22.80;55.50
11454;DHT22;5783;55.174;61.310;2023-09-19T15:41:39;22.80;55.40
11454;DHT22;5783;55.174;61.310;2023-09-19T15:44:28;22.80;55.40
11454;DHT22;5783;55.174;61.310;2023-09-19T15:46:57;22.80;55.30
11454;DHT22;5783;55.174;61.310;2023-09-19T15:49:27;22.80;55.30
11454;DHT22;5783;55.174;61.310;2023-09-19T15:51:56;22.80;55.20
11454;DHT22;5783;55.174;61.310;2023-09-19T15:54:25;22.80;55.20
11454;DHT22;5783;55.174;61.310;2023-09-19T15:56:56;22.80;55.10
11454;DHT22;5783;55.174;61.310;2023-09-19T15:59:25;22.80;54.60
11454;DHT22;5783;55.174;61.310;2023-09-19T16:01:56;22.80;55.20
11454;DHT22;5783;55.174;61.310;2023-09-19T16:04:25;22.80;55.30
11454;DHT22;5783;55.174;61.310;2023-09-19T16:06:54;22.80;55.40
11454;DHT22;5783;55.174;61.310;2023-09-19T16:09:23;22.80;55.30
11454;DHT22;5783;55.174;61.310;2023-09-19T16:11:52;22.80;55.30
11454;DHT22;5783;55.174;61.310;2023-09-19T16:14:21;22.80;55.30
11454;DHT22;5783;55.174;61.310;2023-09-19T16:16:51;22.80;55.30
11454;DHT22;5783;55.174;61.310;2023-09-19T16:19:20;22.80;55.20
11454;DHT22;5783;55.174;61.310;2023-09-19T16:21:49;22.80;55.30
11454;DHT22;5783;55.174;61.310;2023-09-19T16:24:18;22.80;55.20
11454;DHT22;5783;55.174;61.310;2023-09-19T16:26:47;22.80;55.20
11454;DHT22;5783;55.174;61.310;2023-09-19T16:29:16;22.80;55.30
11454;DHT22;5783;55.174;61.310;2023-09-19T16:31:47;22.80;55.20
11454;DHT22;5783;55.174;61.310;2023-09-19T16:34:16;22.80;54.80
11454;DHT22;5783;55.174;61.310;2023-09-19T16:36:45;22.80;55.80
11454;DHT22;5783;55.174;61.310;2023-09-19T16:39:15;22.80;55.30
11454;DHT22;5783;55.174;61.310;2023-09-19T16:41:44;22.80;55.20
11454;DHT22;5783;55.174;61.310;2023-09-19T16:44:14;22.80;55.10
11454;DHT22;5783;55.174;61.310;2023-09-19T16:46:43;22.80;55.10
11454;DHT22;5783;55.174;61.310;2023-09-19T16:49:12;22.80;55.00
11454;DHT22;5783;55.174;61.310;2023-09-19T16:51:41;22.80;55.00
11454;DHT22;5783;55.174;61.310;2023-09-19T16:54:10;22.80;55.00
11454;DHT22;5783;55.174;61.310;2023-09-19T16:56:40;22.80;54.80
11454;DHT22;5783;55.174;61.310;2023-09-19T16:59:10;22.80;54.90
11454;DHT22;5783;55.174;61.310;2023-09-19T17:01:39;22.80;54.80
11454;DHT22;5783;55.174;61.310;2023-09-19T17:04:08;22.80;54.80
11454;DHT22;5783;55.174;61.310;2023-09-19T17:06:38;22.80;54.60
11454;DHT22;5783;55.174;61.310;2023-09-19T17:09:07;22.80;54.60
11454;DHT22;5783;55.174;61.310;2023-09-19T17:11:36;22.80;54.60
11454;DHT22;5783;55.174;61.310;2023-09-19T17:14:05;22.80;54.60
11454;DHT22;5783;55.174;61.310;2023-09-19T17:16:35;22.80;54.60
11454;DHT22;5783;55.174;61.310;2023-09-19T17:19:05;22.80;54.50